sensor_id;sensor_type;location;lat;lon;timestamp;pressure;altitude;pressure_sealevel;temperature;humidity
20455;BME280;10386;54.314;10.022;2023-09-07T00:00:39;102102.44;;;18.68;100.00
20455;BME280;10386;54.314;10.022;2023-09-07T00:03:07;102103.06;;;18.60;100.00
20455;BME280;10386;54.314;10.022;2023-09-07T00:05:34;102105.75;;;18.51;100.00
20455;BME280;10386;54.314;10.022;2023-09-07T00:08:02;102109.59;;;18.48;100.00
20455;BME280;10386;54.314;10.022;2023-09-07T00:10:29;102112.28;;;18.39;100.00
20455;BME280;10386;54.314;10.022;2023-09-07T00:12:57;102115.88;;;18.39;100.00
20455;BME280;10386;54.314;10.022;2023-09-07T00:15:24;102100.03;;;18.32;100.00
20455;BME280;10386;54.314;10.022;2023-09-07T00:17:53;102116.00;;;18.16;100.00
20455;BME280;10386;54.314;10.022;2023-09-07T00:20:21;102116.75;;;18.07;100.00
20455;BME280;10386;54.314;10.022;2023-09-07T00:22:49;102110.66;;;17.93;100.00
20455;BME280;10386;54.314;10.022;2023-09-07T00:25:16;102112.00;;;17.87;100.00
20455;BME280;10386;54.314;10.022;2023-09-07T00:27:44;102100.91;;;17.89;100.00
20455;BME280;10386;54.314;10.022;2023-09-07T00:30:11;102100.28;;;17.74;100.00
20455;BME280;10386;54.314;10.022;2023-09-07T00:32:39;102096.38;;;17.77;100.00
20455;BME280;10386;54.314;10.022;2023-09-07T00:35:08;102092.53;;;17.68;100.00
20455;BME280;10386;54.314;10.022;2023-09-07T00:37:35;102071.91;;;17.63;100.00
20455;BME280;10386;54.314;10.022;2023-09-07T00:40:03;102068.31;;;17.51;100.00
20455;BME280;10386;54.314;10.022;2023-09-07T00:42:30;102065.66;;;17.50;100.00
20455;BME280;10386;54.314;10.022;2023-09-07T00:44:58;102061.16;;;17.49;100.00
20455;BME280;10386;54.314;10.022;2023-09-07T00:47:26;102058.66;;;17.46;100.00
20455;BME280;10386;54.314;10.022;2023-09-07T00:49:54;102050.94;;;17.51;100.00
20455;BME280;10386;54.314;10.022;2023-09-07T00:52:21;102052.78;;;17.39;100.00
20455;BME280;10386;54.314;10.022;2023-09-07T00:54:49;102045.53;;;17.38;100.00
20455;BME280;10386;54.314;10.022;2023-09-07T00:57:16;102046.94;;;17.33;100.00
20455;BME280;10386;54.314;10.022;2023-09-07T00:59:46;102047.88;;;17.21;100.00
20455;BME280;10386;54.314;10.022;2023-09-07T01:02:13;102039.97;;;17.16;100.00
20455;BME280;10386;54.314;10.022;2023-09-07T01:04:41;102034.63;;;17.15;100.00
20455;BME280;10386;54.314;10.022;2023-09-07T01:07:15;102025.25;;;17.06;100.00
20455;BME280;10386;54.314;10.022;2023-09-07T01:09:47;102021.00;;;17.02;100.00
20455;BME280;10386;54.314;10.022;2023-09-07T01:12:16;102156.47;;;17.01;100.00
20455;BME280;10386;54.314;10.022;2023-09-07T01:14:44;102148.00;;;17.04;100.00
20455;BME280;10386;54.314;10.022;2023-09-07T01:17:12;102148.22;;;17.01;100.00
20455;BME280;10386;54.314;10.022;2023-09-07T01:19:40;102145.47;;;17.01;100.00
20455;BME280;10386;54.314;10.022;2023-09-07T01:22:09;102140.88;;;17.02;100.00
20455;BME280;10386;54.314;10.022;2023-09-07T01:24:38;102139.81;;;16.92;100.00
20455;BME280;10386;54.314;10.022;2023-09-07T01:27:06;102143.03;;;16.86;100.00
20455;BME280;10386;54.314;10.022;2023-09-07T01:29:34;102141.00;;;16.77;100.00
20455;BME280;10386;54.314;10.022;2023-09-07T01:32:04;102135.63;;;16.75;100.00
20455;BME280;10386;54.314;10.022;2023-09-07T01:34:32;102129.63;;;16.70;100.00
20455;BME280;10386;54.314;10.022;2023-09-07T01:36:59;102132.00;;;16.75;100.00
20455;BME280;10386;54.314;10.022;2023-09-07T01:39:27;102129.91;;;16.78;100.00
20455;BME280;10386;54.314;10.022;2023-09-07T01:41:54;102125.81;;;16.84;100.00
20455;BME280;10386;54.314;10.022;2023-09-07T01:44:21;102123.78;;;16.75;100.00
20455;BME280;10386;54.314;10.022;2023-09-07T01:46:49;102112.03;;;16.73;100.00
20455;BME280;10386;54.314;10.022;2023-09-07T01:49:17;102122.25;;;16.71;100.00
20455;BME280;10386;54.314;10.022;2023-09-07T01:51:44;102125.22;;;16.68;100.00
20455;BME280;10386;54.314;10.022;2023-09-07T01:54:11;102119.41;;;16.72;100.00
20455;BME280;10386;54.314;10.022;2023-09-07T01:56:41;102117.91;;;16.68;100.00
20455;BME280;10386;54.314;10.022;2023-09-07T01:59:08;102116.91;;;16.69;100.00
20455;BME280;10386;54.314;10.022;2023-09-07T02:01:36;102119.19;;;16.75;100.00
20455;BME280;10386;54.314;10.022;2023-09-07T02:04:04;102116.06;;;16.80;100.00
20455;BME280;10386;54.314;10.022;2023-09-07T02:06:32;102124.66;;;16.75;100.00
20455;BME280;10386;54.314;10.022;2023-09-07T02:09:00;102115.53;;;16.75;100.00
20455;BME280;10386;54.314;10.022;2023-09-07T02:11:32;102118.56;;;16.83;100.00
20455;BME280;10386;54.314;10.022;2023-09-07T02:13:59;102117.00;;;16.91;100.00
20455;BME280;10386;54.314;10.022;2023-09-07T02:16:27;102122.44;;;16.80;100.00
20455;BME280;10386;54.314;10.022;2023-09-07T02:19:02;102113.75;;;16.86;100.00
20455;BME280;10386;54.314;10.022;2023-09-07T02:21:31;102121.31;;;16.83;100.00
20455;BME280;10386;54.314;10.022;2023-09-07T02:23:58;102119.28;;;16.74;100.00
20455;BME280;10386;54.314;10.022;2023-09-07T02:26:26;102112.94;;;16.73;100.00
20455;BME280;10386;54.314;10.022;2023-09-07T02:28:55;102125.47;;;16.65;100.00
20455;BME280;10386;54.314;10.022;2023-09-07T02:31:23;102129.25;;;16.52;100.00
20455;BME280;10386;54.314;10.022;2023-09-07T02:33:51;102126.25;;;16.55;100.00
20455;BME280;10386;54.314;10.022;2023-09-07T02:36:18;102118.09;;;16.42;100.00
20455;BME280;10386;54.314;10.022;2023-09-07T02:38:45;102111.63;;;16.43;100.00
20455;BME280;10386;54.314;10.022;2023-09-07T02:41:17;102111.97;;;16.39;100.00
20455;BME280;10386;54.314;10.022;2023-09-07T02:43:44;102116.59;;;16.38;100.00
20455;BME280;10386;54.314;10.022;2023-09-07T02:46:12;102111.47;;;16.21;100.00
20455;BME280;10386;54.314;10.022;2023-09-07T02:48:39;102111.47;;;16.21;100.00
20455;BME280;10386;54.314;10.022;2023-09-07T02:51:06;102107.97;;;16.19;100.00
20455;BME280;10386;54.314;10.022;2023-09-07T02:53:34;102109.38;;;16.12;100.00
20455;BME280;10386;54.314;10.022;2023-09-07T02:56:01;102103.25;;;16.21;100.00
20455;BME280;10386;54.314;10.022;2023-09-07T02:58:31;102108.50;;;16.12;100.00
20455;BME280;10386;54.314;10.022;2023-09-07T03:01:05;102100.16;;;16.13;100.00
20455;BME280;10386;54.314;10.022;2023-09-07T03:03:33;102102.81;;;16.15;100.00
20455;BME280;10386;54.314;10.022;2023-09-07T03:06:12;102104.88;;;16.11;100.00
20455;BME280;10386;54.314;10.022;2023-09-07T03:08:40;102112.94;;;15.89;100.00
20455;BME280;10386;54.314;10.022;2023-09-07T03:11:08;102112.16;;;15.87;100.00
20455;BME280;10386;54.314;10.022;2023-09-07T03:13:35;102099.78;;;15.94;100.00
20455;BME280;10386;54.314;10.022;2023-09-07T03:16:04;102101.75;;;15.92;100.00
20455;BME280;10386;54.314;10.022;2023-09-07T03:18:32;102102.41;;;15.96;100.00
20455;BME280;10386;54.314;10.022;2023-09-07T03:21:01;102104.06;;;15.86;100.00
20455;BME280;10386;54.314;10.022;2023-09-07T03:23:31;102107.81;;;15.72;100.00
20455;BME280;10386;54.314;10.022;2023-09-07T03:26:00;102113.94;;;15.63;100.00
20455;BME280;10386;54.314;10.022;2023-09-07T03:28:27;102111.00;;;15.66;100.00
20455;BME280;10386;54.314;10.022;2023-09-07T03:30:55;102105.06;;;15.72;100.00
20455;BME280;10386;54.314;10.022;2023-09-07T03:33:22;102113.19;;;15.74;100.00
20455;BME280;10386;54.314;10.022;2023-09-07T03:35:49;102112.41;;;15.59;100.00
20455;BME280;10386;54.314;10.022;2023-09-07T03:38:18;102108.78;;;15.71;100.00
20455;BME280;10386;54.314;10.022;2023-09-07T03:40:46;102110.00;;;15.67;100.00
20455;BME280;10386;54.314;10.022;2023-09-07T03:43:14;102107.34;;;15.66;100.00
20455;BME280;10386;54.314;10.022;2023-09-07T03:45:41;102106.19;;;15.57;100.00
20455;BME280;10386;54.314;10.022;2023-09-07T03:48:08;102108.16;;;15.55;100.00
20455;BME280;10386;54.314;10.022;2023-09-07T03:50:37;102115.03;;;15.61;100.00
20455;BME280;10386;54.314;10.022;2023-09-07T03:53:04;102106.19;;;15.57;100.00
20455;BME280;10386;54.314;10.022;2023-09-07T03:55:43;102112.63;;;15.56;100.00
20455;BME280;10386;54.314;10.022;2023-09-07T03:58:11;102108.81;;;15.46;100.00
20455;BME280;10386;54.314;10.022;2023-09-07T04:00:41;102106.72;;;15.37;100.00
20455;BME280;10386;54.314;10.022;2023-09-07T04:03:12;102108.91;;;15.32;100.00
20455;BME280;10386;54.314;10.022;2023-09-07T04:05:39;102106.28;;;15.31;100.00
20455;BME280;10386;54.314;10.022;2023-09-07T04:08:07;102112.50;;;15.33;100.00
20455;BME280;10386;54.314;10.022;2023-09-07T04:10:37;102106.38;;;15.29;100.00
20455;BME280;10386;54.314;10.022;2023-09-07T04:13:05;102109.22;;;15.28;100.00
20455;BME280;10386;54.314;10.022;2023-09-07T04:15:43;102113.72;;;15.29;100.00
20455;BME280;10386;54.314;10.022;2023-09-07T04:18:11;102102.94;;;15.26;100.00
20455;BME280;10386;54.314;10.022;2023-09-07T04:20:45;102104.03;;;15.23;100.00
20455;BME280;10386;54.314;10.022;2023-09-07T04:23:13;102096.50;;;15.27;100.00
20455;BME280;10386;54.314;10.022;2023-09-07T04:25:40;102101.41;;;15.22;100.00
20455;BME280;10386;54.314;10.022;2023-09-07T04:28:08;102111.13;;;15.14;100.00
20455;BME280;10386;54.314;10.022;2023-09-07T04:30:39;102111.34;;;15.11;100.00
20455;BME280;10386;54.314;10.022;2023-09-07T04:33:07;102105.78;;;15.12;100.00
20455;BME280;10386;54.314;10.022;2023-09-07T04:35:35;102113.13;;;15.24;100.00
20455;BME280;10386;54.314;10.022;2023-09-07T04:38:02;102106.34;;;15.17;100.00
20455;BME280;10386;54.314;10.022;2023-09-07T04:40:29;102105.00;;;15.10;100.00
20455;BME280;10386;54.314;10.022;2023-09-07T04:42:56;102115.06;;;15.10;100.00
20455;BME280;10386;54.314;10.022;2023-09-07T04:45:23;102108.19;;;15.17;100.00
20455;BME280;10386;54.314;10.022;2023-09-07T04:47:51;102112.56;;;15.19;100.00
20455;BME280;10386;54.314;10.022;2023-09-07T04:50:18;102104.47;;;15.18;100.00
20455;BME280;10386;54.314;10.022;2023-09-07T04:52:46;102111.06;;;15.27;100.00
20455;BME280;10386;54.314;10.022;2023-09-07T04:55:13;102109.50;;;15.23;100.00
20455;BME280;10386;54.314;10.022;2023-09-07T04:57:40;102111.69;;;15.18;100.00
20455;BME280;10386;54.314;10.022;2023-09-07T05:00:07;102106.22;;;15.18;100.00
20455;BME280;10386;54.314;10.022;2023-09-07T05:02:36;102103.81;;;15.26;100.00
20455;BME280;10386;54.314;10.022;2023-09-07T05:05:07;102107.28;;;15.42;100.00
20455;BME280;10386;54.314;10.022;2023-09-07T05:07:38;102108.03;;;15.57;100.00
20455;BME280;10386;54.314;10.022;2023-09-07T05:10:06;102101.13;;;15.64;100.00
20455;BME280;10386;54.314;10.022;2023-09-07T05:12:35;102097.94;;;15.70;100.00
20455;BME280;10386;54.314;10.022;2023-09-07T05:15:03;102098.50;;;15.75;100.00
20455;BME280;10386;54.314;10.022;2023-09-07T05:17:32;102101.66;;;15.81;100.00
20455;BME280;10386;54.314;10.022;2023-09-07T05:20:00;102094.66;;;15.77;100.00
20455;BME280;10386;54.314;10.022;2023-09-07T05:22:27;102095.19;;;15.82;100.00
20455;BME280;10386;54.314;10.022;2023-09-07T05:24:55;102097.16;;;15.93;100.00
20455;BME280;10386;54.314;10.022;2023-09-07T05:27:22;102098.56;;;15.98;100.00
20455;BME280;10386;54.314;10.022;2023-09-07T05:29:49;102108.19;;;16.04;100.00
20455;BME280;10386;54.314;10.022;2023-09-07T05:32:16;102105.88;;;16.10;100.00
20455;BME280;10386;54.314;10.022;2023-09-07T05:34:43;102102.25;;;16.22;100.00
20455;BME280;10386;54.314;10.022;2023-09-07T05:37:10;102095.88;;;16.34;100.00
20455;BME280;10386;54.314;10.022;2023-09-07T05:39:37;102086.34;;;16.51;100.00
20455;BME280;10386;54.314;10.022;2023-09-07T05:42:04;102087.63;;;16.58;100.00
20455;BME280;10386;54.314;10.022;2023-09-07T05:44:31;102099.47;;;16.70;100.00
20455;BME280;10386;54.314;10.022;2023-09-07T05:47:01;102092.66;;;16.87;100.00
20455;BME280;10386;54.314;10.022;2023-09-07T05:49:29;102083.00;;;17.05;100.00
20455;BME280;10386;54.314;10.022;2023-09-07T05:51:56;102089.53;;;17.15;100.00
20455;BME280;10386;54.314;10.022;2023-09-07T05:54:23;102082.53;;;17.45;100.00
20455;BME280;10386;54.314;10.022;2023-09-07T05:56:50;102076.91;;;17.58;100.00
20455;BME280;10386;54.314;10.022;2023-09-07T05:59:17;102088.66;;;17.82;100.00
20455;BME280;10386;54.314;10.022;2023-09-07T06:01:45;102080.41;;;17.82;100.00
20455;BME280;10386;54.314;10.022;2023-09-07T06:04:12;102079.66;;;18.02;100.00
20455;BME280;10386;54.314;10.022;2023-09-07T06:06:40;102093.91;;;18.07;100.00
20455;BME280;10386;54.314;10.022;2023-09-07T06:09:07;102085.75;;;18.27;100.00
20455;BME280;10386;54.314;10.022;2023-09-07T06:11:34;102092.66;;;18.75;100.00
20455;BME280;10386;54.314;10.022;2023-09-07T06:14:01;102067.53;;;20.21;100.00
20455;BME280;10386;54.314;10.022;2023-09-07T06:16:29;102087.13;;;21.23;100.00
20455;BME280;10386;54.314;10.022;2023-09-07T06:18:56;102123.09;;;22.34;100.00
20455;BME280;10386;54.314;10.022;2023-09-07T06:21:24;102190.47;;;22.61;100.00
20455;BME280;10386;54.314;10.022;2023-09-07T06:23:51;102229.81;;;23.19;100.00
20455;BME280;10386;54.314;10.022;2023-09-07T06:26:18;102281.50;;;23.72;100.00
20455;BME280;10386;54.314;10.022;2023-09-07T06:28:46;102266.69;;;23.98;100.00
20455;BME280;10386;54.314;10.022;2023-09-07T06:31:14;102361.22;;;24.32;100.00
20455;BME280;10386;54.314;10.022;2023-09-07T06:33:45;102430.75;;;24.65;100.00
20455;BME280;10386;54.314;10.022;2023-09-07T06:36:12;102523.41;;;24.56;100.00
20455;BME280;10386;54.314;10.022;2023-09-07T06:38:39;102591.19;;;24.36;100.00
20455;BME280;10386;54.314;10.022;2023-09-07T06:41:06;102631.59;;;24.31;100.00
20455;BME280;10386;54.314;10.022;2023-09-07T06:43:34;102674.69;;;23.89;100.00
20455;BME280;10386;54.314;10.022;2023-09-07T06:46:05;102690.34;;;23.62;100.00
20455;BME280;10386;54.314;10.022;2023-09-07T06:48:32;102715.81;;;24.12;100.00
20455;BME280;10386;54.314;10.022;2023-09-07T06:51:06;102725.91;;;24.13;100.00
20455;BME280;10386;54.314;10.022;2023-09-07T06:53:33;102739.66;;;23.11;100.00
20455;BME280;10386;54.314;10.022;2023-09-07T06:56:20;102746.69;;;22.45;100.00
20455;BME280;10386;54.314;10.022;2023-09-07T06:58:47;102758.41;;;22.29;100.00
20455;BME280;10386;54.314;10.022;2023-09-07T07:01:14;102762.41;;;21.95;100.00
20455;BME280;10386;54.314;10.022;2023-09-07T07:03:41;102776.09;;;21.96;100.00
20455;BME280;10386;54.314;10.022;2023-09-07T07:06:08;102772.13;;;21.69;100.00
20455;BME280;10386;54.314;10.022;2023-09-07T07:08:35;102768.28;;;21.49;100.00
20455;BME280;10386;54.314;10.022;2023-09-07T07:11:02;102761.88;;;21.49;100.00
20455;BME280;10386;54.314;10.022;2023-09-07T07:13:29;102773.66;;;21.62;100.00
20455;BME280;10386;54.314;10.022;2023-09-07T07:15:56;102768.56;;;21.78;100.00
20455;BME280;10386;54.314;10.022;2023-09-07T07:18:23;102763.03;;;21.78;100.00
20455;BME280;10386;54.314;10.022;2023-09-07T07:20:50;102767.13;;;21.83;100.00
20455;BME280;10386;54.314;10.022;2023-09-07T07:23:17;102763.28;;;21.95;100.00
20455;BME280;10386;54.314;10.022;2023-09-07T07:25:44;102757.41;;;22.09;100.00
20455;BME280;10386;54.314;10.022;2023-09-07T07:28:11;102762.88;;;22.20;100.00
20455;BME280;10386;54.314;10.022;2023-09-07T07:30:39;102758.13;;;22.32;100.00
20455;BME280;10386;54.314;10.022;2023-09-07T07:33:10;102754.72;;;22.39;100.00
20455;BME280;10386;54.314;10.022;2023-09-07T07:35:38;102750.78;;;22.42;100.00
20455;BME280;10386;54.314;10.022;2023-09-07T07:38:05;102750.09;;;22.49;100.00
20455;BME280;10386;54.314;10.022;2023-09-07T07:40:35;102752.19;;;22.66;100.00
20455;BME280;10386;54.314;10.022;2023-09-07T07:43:02;102753.91;;;22.97;100.00
20455;BME280;10386;54.314;10.022;2023-09-07T07:45:30;102757.03;;;23.13;100.00
20455;BME280;10386;54.314;10.022;2023-09-07T07:47:56;102759.91;;;23.02;100.00
20455;BME280;10386;54.314;10.022;2023-09-07T07:50:23;102768.84;;;23.24;100.00
20455;BME280;10386;54.314;10.022;2023-09-07T07:52:50;102765.34;;;23.13;100.00
20455;BME280;10386;54.314;10.022;2023-09-07T07:55:17;102766.53;;;23.29;100.00
20455;BME280;10386;54.314;10.022;2023-09-07T07:57:44;102764.66;;;23.49;100.00
20455;BME280;10386;54.314;10.022;2023-09-07T08:00:12;102763.06;;;23.65;100.00
20455;BME280;10386;54.314;10.022;2023-09-07T08:02:39;102768.47;;;23.57;100.00
20455;BME280;10386;54.314;10.022;2023-09-07T08:05:06;102769.63;;;23.64;100.00
20455;BME280;10386;54.314;10.022;2023-09-07T08:07:33;102775.34;;;23.82;100.00
20455;BME280;10386;54.314;10.022;2023-09-07T08:10:00;102767.84;;;23.54;100.00
20455;BME280;10386;54.314;10.022;2023-09-07T08:12:27;102775.19;;;23.83;100.00
20455;BME280;10386;54.314;10.022;2023-09-07T08:14:55;102765.38;;;23.79;100.00
20455;BME280;10386;54.314;10.022;2023-09-07T08:17:24;102772.25;;;24.03;100.00
20455;BME280;10386;54.314;10.022;2023-09-07T08:19:53;102765.50;;;24.15;100.00
20455;BME280;10386;54.314;10.022;2023-09-07T08:22:23;102763.56;;;24.25;100.00
20455;BME280;10386;54.314;10.022;2023-09-07T08:24:51;102768.38;;;24.33;100.00
20455;BME280;10386;54.314;10.022;2023-09-07T08:27:19;102763.91;;;24.68;100.00
20455;BME280;10386;54.314;10.022;2023-09-07T08:29:49;102771.22;;;24.69;100.00
20455;BME280;10386;54.314;10.022;2023-09-07T08:32:19;102774.72;;;24.71;100.00
20455;BME280;10386;54.314;10.022;2023-09-07T08:34:47;102760.72;;;25.08;100.00
20455;BME280;10386;54.314;10.022;2023-09-07T08:37:15;102762.31;;;25.10;100.00
20455;BME280;10386;54.314;10.022;2023-09-07T08:39:43;102765.28;;;25.36;100.00
20455;BME280;10386;54.314;10.022;2023-09-07T08:42:11;102758.44;;;25.47;100.00
20455;BME280;10386;54.314;10.022;2023-09-07T08:44:42;102754.22;;;25.43;100.00
20455;BME280;10386;54.314;10.022;2023-09-07T08:47:10;102772.03;;;25.68;100.00
20455;BME280;10386;54.314;10.022;2023-09-07T08:49:40;102763.63;;;25.60;100.00
20455;BME280;10386;54.314;10.022;2023-09-07T08:52:09;102766.22;;;25.61;100.00
20455;BME280;10386;54.314;10.022;2023-09-07T08:54:38;102766.22;;;25.61;100.00
20455;BME280;10386;54.314;10.022;2023-09-07T08:57:06;102754.78;;;25.99;100.00
20455;BME280;10386;54.314;10.022;2023-09-07T08:59:34;102765.59;;;26.02;100.00
20455;BME280;10386;54.314;10.022;2023-09-07T09:02:10;102759.25;;;26.18;100.00
20455;BME280;10386;54.314;10.022;2023-09-07T09:04:38;102753.41;;;26.29;100.00
20455;BME280;10386;54.314;10.022;2023-09-07T09:07:08;102757.75;;;26.49;100.00
20455;BME280;10386;54.314;10.022;2023-09-07T09:09:36;102740.50;;;26.28;100.00
20455;BME280;10386;54.314;10.022;2023-09-07T09:12:09;102752.22;;;26.57;100.00
20455;BME280;10386;54.314;10.022;2023-09-07T09:14:41;102739.88;;;27.00;100.00
20455;BME280;10386;54.314;10.022;2023-09-07T09:17:14;102727.31;;;26.96;100.00
20455;BME280;10386;54.314;10.022;2023-09-07T09:19:42;102738.44;;;26.88;100.00
20455;BME280;10386;54.314;10.022;2023-09-07T09:22:11;102733.91;;;26.87;100.00
20455;BME280;10386;54.314;10.022;2023-09-07T09:24:41;102731.69;;;26.99;100.00
20455;BME280;10386;54.314;10.022;2023-09-07T09:27:08;102727.72;;;27.09;100.00
20455;BME280;10386;54.314;10.022;2023-09-07T09:29:36;102736.97;;;27.10;100.00
20455;BME280;10386;54.314;10.022;2023-09-07T09:32:06;102745.16;;;27.11;100.00
20455;BME280;10386;54.314;10.022;2023-09-07T09:34:34;102733.03;;;27.44;100.00
20455;BME280;10386;54.314;10.022;2023-09-07T09:37:04;102742.88;;;27.80;100.00
20455;BME280;10386;54.314;10.022;2023-09-07T09:39:31;102720.16;;;27.91;100.00
20455;BME280;10386;54.314;10.022;2023-09-07T09:41:59;102729.59;;;28.06;100.00
20455;BME280;10386;54.314;10.022;2023-09-07T09:44:28;102715.75;;;28.21;100.00
20455;BME280;10386;54.314;10.022;2023-09-07T09:46:57;102717.38;;;28.07;100.00
20455;BME280;10386;54.314;10.022;2023-09-07T09:49:27;102710.72;;;27.52;100.00
20455;BME280;10386;54.314;10.022;2023-09-07T09:51:57;102726.28;;;27.87;100.00
20455;BME280;10386;54.314;10.022;2023-09-07T09:54:26;102720.31;;;28.14;100.00
20455;BME280;10386;54.314;10.022;2023-09-07T09:56:55;102708.63;;;27.46;100.00
20455;BME280;10386;54.314;10.022;2023-09-07T09:59:22;102720.00;;;28.01;100.00
20455;BME280;10386;54.314;10.022;2023-09-07T10:01:51;102713.50;;;28.00;100.00
20455;BME280;10386;54.314;10.022;2023-09-07T10:04:20;102686.66;;;27.91;100.00
20455;BME280;10386;54.314;10.022;2023-09-07T10:06:59;102696.41;;;27.55;100.00
20455;BME280;10386;54.314;10.022;2023-09-07T10:09:34;102701.16;;;27.87;100.00
20455;BME280;10386;54.314;10.022;2023-09-07T10:12:04;102699.88;;;28.21;100.00
20455;BME280;10386;54.314;10.022;2023-09-07T10:14:39;102698.59;;;28.47;100.00
20455;BME280;10386;54.314;10.022;2023-09-07T10:17:08;102684.53;;;28.71;100.00
20455;BME280;10386;54.314;10.022;2023-09-07T10:19:37;102695.66;;;28.41;100.00
20455;BME280;10386;54.314;10.022;2023-09-07T10:22:08;102694.44;;;28.35;100.00
20455;BME280;10386;54.314;10.022;2023-09-07T10:24:41;102694.41;;;28.51;100.00
20455;BME280;10386;54.314;10.022;2023-09-07T10:27:44;102688.91;;;28.66;100.00
20455;BME280;10386;54.314;10.022;2023-09-07T10:32:52;102680.56;;;28.96;100.00
20455;BME280;10386;54.314;10.022;2023-09-07T10:35:21;102674.84;;;28.90;100.00
20455;BME280;10386;54.314;10.022;2023-09-07T10:37:49;102666.88;;;28.71;100.00
20455;BME280;10386;54.314;10.022;2023-09-07T10:40:22;102672.03;;;28.98;100.00
20455;BME280;10386;54.314;10.022;2023-09-07T10:43:00;102683.59;;;28.87;100.00
20455;BME280;10386;54.314;10.022;2023-09-07T10:45:31;102674.59;;;28.61;100.00
20455;BME280;10386;54.314;10.022;2023-09-07T10:47:59;102694.97;;;29.16;100.00
20455;BME280;10386;54.314;10.022;2023-09-07T10:50:27;102678.56;;;28.74;100.00
20455;BME280;10386;54.314;10.022;2023-09-07T10:53:02;102677.66;;;28.82;100.00
20455;BME280;10386;54.314;10.022;2023-09-07T10:55:36;102665.44;;;28.75;100.00
20455;BME280;10386;54.314;10.022;2023-09-07T10:58:10;102681.59;;;29.03;100.00
20455;BME280;10386;54.314;10.022;2023-09-07T11:00:42;102658.75;;;28.84;100.00
20455;BME280;10386;54.314;10.022;2023-09-07T11:03:13;102654.53;;;28.57;100.00
20455;BME280;10386;54.314;10.022;2023-09-07T11:05:42;102668.75;;;28.78;100.00
20455;BME280;10386;54.314;10.022;2023-09-07T11:08:10;102656.31;;;28.81;100.00
20455;BME280;10386;54.314;10.022;2023-09-07T11:10:38;102656.03;;;28.68;100.00
20455;BME280;10386;54.314;10.022;2023-09-07T11:13:06;102648.13;;;28.87;100.00
20455;BME280;10386;54.314;10.022;2023-09-07T11:15:35;102658.03;;;28.98;100.00
20455;BME280;10386;54.314;10.022;2023-09-07T11:18:06;102668.75;;;29.17;100.00
20455;BME280;10386;54.314;10.022;2023-09-07T11:20:37;102646.88;;;29.12;100.00
20455;BME280;10386;54.314;10.022;2023-09-07T11:23:08;102649.16;;;29.17;100.00
20455;BME280;10386;54.314;10.022;2023-09-07T11:25:36;102628.63;;;29.02;100.00
20455;BME280;10386;54.314;10.022;2023-09-07T11:28:08;102625.34;;;28.60;100.00
20455;BME280;10386;54.314;10.022;2023-09-07T11:30:54;102638.38;;;28.75;100.00
20455;BME280;10386;54.314;10.022;2023-09-07T11:33:22;102637.44;;;28.44;100.00
20455;BME280;10386;54.314;10.022;2023-09-07T11:35:51;102642.38;;;28.73;100.00
20455;BME280;10386;54.314;10.022;2023-09-07T11:38:22;102623.50;;;28.36;100.00
20455;BME280;10386;54.314;10.022;2023-09-07T11:40:49;102646.59;;;28.31;100.00
20455;BME280;10386;54.314;10.022;2023-09-07T11:43:17;102654.41;;;28.43;100.00
20455;BME280;10386;54.314;10.022;2023-09-07T11:45:49;102659.31;;;28.41;100.00
20455;BME280;10386;54.314;10.022;2023-09-07T11:48:17;102643.94;;;28.45;100.00
20455;BME280;10386;54.314;10.022;2023-09-07T11:50:44;102619.31;;;28.40;100.00
20455;BME280;10386;54.314;10.022;2023-09-07T11:53:12;102639.88;;;28.47;100.00
20455;BME280;10386;54.314;10.022;2023-09-07T11:55:41;102650.81;;;28.65;100.00
20455;BME280;10386;54.314;10.022;2023-09-07T11:58:10;102635.69;;;28.51;100.00
20455;BME280;10386;54.314;10.022;2023-09-07T12:00:37;102635.50;;;28.53;100.00
20455;BME280;10386;54.314;10.022;2023-09-07T12:03:08;102636.28;;;28.39;100.00
20455;BME280;10386;54.314;10.022;2023-09-07T12:05:36;102629.09;;;28.75;100.00
20455;BME280;10386;54.314;10.022;2023-09-07T12:08:05;102631.72;;;28.38;100.00
20455;BME280;10386;54.314;10.022;2023-09-07T12:10:33;102642.47;;;28.57;100.00
20455;BME280;10386;54.314;10.022;2023-09-07T12:13:00;102644.53;;;28.63;100.00
20455;BME280;10386;54.314;10.022;2023-09-07T12:15:27;102650.97;;;28.71;100.00
20455;BME280;10386;54.314;10.022;2023-09-07T12:17:56;102639.88;;;28.47;100.00
20455;BME280;10386;54.314;10.022;2023-09-07T12:20:24;102639.72;;;28.49;100.00
20455;BME280;10386;54.314;10.022;2023-09-07T12:22:52;102636.56;;;28.82;100.00
20455;BME280;10386;54.314;10.022;2023-09-07T12:25:19;102646.16;;;28.96;100.00
20455;BME280;10386;54.314;10.022;2023-09-07T12:27:48;102634.75;;;28.97;100.00
20455;BME280;10386;54.314;10.022;2023-09-07T12:30:21;102630.53;;;29.01;100.00
20455;BME280;10386;54.314;10.022;2023-09-07T12:32:51;102610.25;;;28.99;100.00
20455;BME280;10386;54.314;10.022;2023-09-07T12:35:19;102610.50;;;28.82;100.00
20455;BME280;10386;54.314;10.022;2023-09-07T12:37:47;102624.31;;;28.91;100.00
20455;BME280;10386;54.314;10.022;2023-09-07T12:40:15;102608.03;;;29.17;100.00